KCCR/CCR METAR and TAF weather

Enter ICAO airport designator
Station Type Date Time Source
KCCR METAR 2019/06/24 23:53 UTC NOAA

KCCR 242353Z 25009KT 10SM CLR 31/08 A2978 RMK AO2 SLP071 T03110078 10333 20233 56014


Station Type Date Time Source
KCCR Decoded METAR 2019/06/24 23:53 UTC NOAA

CONCORD BUCHANAN FIELD, CA, United States (KCCR) 38-00N 122-03W 11M
Jun 24, 2019 - 07:53 PM EDT / 2019.06.24 2353 UTC
Wind: from the WSW (250 degrees) at 10 MPH (9 KT):0
Visibility: 10 mile(s):0
Sky conditions: clear
Temperature: 88.0 F (31.1 C)
Dew Point: 46.0 F (7.8 C)
Relative Humidity: 23%
Pressure (altimeter): 29.78 in. Hg (1008 hPa)
Pressure tendency: 0.04 inches (1.4 hPa) lower than three hours ago
ob: KCCR 242353Z 25009KT 10SM CLR 31/08 A2978 RMK AO2 SLP071 T03110078 10333 20233 56014
cycle: 0

Station Type Date Time Source
KCCR TAF 2016/02/08 18:39 UTC NOAA

TAF KCCR 081738Z 0818/0918 07006KT P6SM SKC
FM082000 06010KT P6SM SKC
FM090000 06005KT P6SM SKC
FM090600 VRB03KT P6SM SKC

Example: see airport list